sensor_id;sensor_type;location;lat;lon;timestamp;P1;durP1;ratioP1;P2;durP2;ratioP2
69841;SDS011;57138;51.326;-0.068;2022-12-11T00:00:12;45.50;;;19.65;;
69841;SDS011;57138;51.326;-0.068;2022-12-11T00:02:42;36.00;;;17.90;;
69841;SDS011;57138;51.326;-0.068;2022-12-11T00:05:10;41.55;;;16.75;;
69841;SDS011;57138;51.326;-0.068;2022-12-11T00:07:36;34.63;;;16.08;;
69841;SDS011;57138;51.326;-0.068;2022-12-11T00:10:06;30.77;;;13.93;;
69841;SDS011;57138;51.326;-0.068;2022-12-11T00:12:33;32.22;;;13.35;;
69841;SDS011;57138;51.326;-0.068;2022-12-11T00:14:59;28.15;;;13.30;;
69841;SDS011;57138;51.326;-0.068;2022-12-11T00:17:25;30.10;;;11.38;;
69841;SDS011;57138;51.326;-0.068;2022-12-11T00:19:51;23.65;;;11.55;;
69841;SDS011;57138;51.326;-0.068;2022-12-11T00:22:17;31.70;;;11.43;;
69841;SDS011;57138;51.326;-0.068;2022-12-11T00:24:42;28.65;;;11.15;;
69841;SDS011;57138;51.326;-0.068;2022-12-11T00:27:08;26.23;;;11.07;;
69841;SDS011;57138;51.326;-0.068;2022-12-11T00:29:34;29.92;;;12.07;;
69841;SDS011;57138;51.326;-0.068;2022-12-11T00:31:59;26.88;;;11.55;;
69841;SDS011;57138;51.326;-0.068;2022-12-11T00:34:26;26.92;;;11.35;;
69841;SDS011;57138;51.326;-0.068;2022-12-11T00:36:53;28.52;;;13.57;;
69841;SDS011;57138;51.326;-0.068;2022-12-11T00:39:19;70.15;;;30.20;;
69841;SDS011;57138;51.326;-0.068;2022-12-11T00:41:44;63.42;;;27.13;;
69841;SDS011;57138;51.326;-0.068;2022-12-11T00:44:11;58.35;;;24.13;;
69841;SDS011;57138;51.326;-0.068;2022-12-11T00:46:38;40.13;;;18.17;;
69841;SDS011;57138;51.326;-0.068;2022-12-11T00:49:04;34.05;;;13.95;;
69841;SDS011;57138;51.326;-0.068;2022-12-11T00:51:33;36.90;;;13.20;;
69841;SDS011;57138;51.326;-0.068;2022-12-11T00:53:59;22.17;;;11.02;;
69841;SDS011;57138;51.326;-0.068;2022-12-11T00:56:26;20.52;;;10.60;;
69841;SDS011;57138;51.326;-0.068;2022-12-11T00:58:54;19.60;;;9.48;;
69841;SDS011;57138;51.326;-0.068;2022-12-11T01:01:21;23.15;;;9.98;;
69841;SDS011;57138;51.326;-0.068;2022-12-11T01:03:52;22.35;;;10.63;;
69841;SDS011;57138;51.326;-0.068;2022-12-11T01:06:19;25.42;;;11.20;;
69841;SDS011;57138;51.326;-0.068;2022-12-11T01:08:48;29.60;;;11.85;;
69841;SDS011;57138;51.326;-0.068;2022-12-11T01:11:34;29.15;;;11.98;;
69841;SDS011;57138;51.326;-0.068;2022-12-11T01:14:02;29.60;;;12.75;;
69841;SDS011;57138;51.326;-0.068;2022-12-11T01:16:37;30.85;;;11.80;;
69841;SDS011;57138;51.326;-0.068;2022-12-11T01:19:04;28.20;;;11.13;;
69841;SDS011;57138;51.326;-0.068;2022-12-11T01:21:31;29.75;;;11.52;;
69841;SDS011;57138;51.326;-0.068;2022-12-11T01:23:59;28.50;;;11.18;;
69841;SDS011;57138;51.326;-0.068;2022-12-11T01:26:34;26.30;;;12.93;;
69841;SDS011;57138;51.326;-0.068;2022-12-11T01:28:59;32.30;;;13.20;;
69841;SDS011;57138;51.326;-0.068;2022-12-11T01:31:25;22.27;;;10.75;;
69841;SDS011;57138;51.326;-0.068;2022-12-11T01:33:54;27.63;;;11.15;;
69841;SDS011;57138;51.326;-0.068;2022-12-11T01:36:22;23.15;;;10.43;;
69841;SDS011;57138;51.326;-0.068;2022-12-11T01:38:50;24.98;;;10.00;;
69841;SDS011;57138;51.326;-0.068;2022-12-11T01:41:19;23.98;;;11.25;;
69841;SDS011;57138;51.326;-0.068;2022-12-11T01:44:02;27.98;;;10.50;;
69841;SDS011;57138;51.326;-0.068;2022-12-11T01:46:56;24.15;;;10.98;;
69841;SDS011;57138;51.326;-0.068;2022-12-11T01:49:24;29.80;;;10.68;;
69841;SDS011;57138;51.326;-0.068;2022-12-11T01:52:07;18.55;;;8.80;;
69841;SDS011;57138;51.326;-0.068;2022-12-11T01:54:41;28.02;;;11.55;;
69841;SDS011;57138;51.326;-0.068;2022-12-11T01:57:07;25.08;;;11.52;;
69841;SDS011;57138;51.326;-0.068;2022-12-11T01:59:36;21.08;;;10.20;;
69841;SDS011;57138;51.326;-0.068;2022-12-11T02:02:15;26.00;;;9.57;;
69841;SDS011;57138;51.326;-0.068;2022-12-11T02:04:44;22.10;;;9.43;;
69841;SDS011;57138;51.326;-0.068;2022-12-11T02:07:11;16.95;;;8.50;;
69841;SDS011;57138;51.326;-0.068;2022-12-11T02:09:37;24.48;;;9.00;;
69841;SDS011;57138;51.326;-0.068;2022-12-11T02:17:47;24.08;;;11.65;;
69841;SDS011;57138;51.326;-0.068;2022-12-11T02:20:16;23.83;;;11.73;;
69841;SDS011;57138;51.326;-0.068;2022-12-11T02:25:34;28.17;;;13.53;;
69841;SDS011;57138;51.326;-0.068;2022-12-11T02:30:53;30.08;;;13.93;;
69841;SDS011;57138;51.326;-0.068;2022-12-11T02:33:27;25.95;;;11.40;;
69841;SDS011;57138;51.326;-0.068;2022-12-11T02:36:01;23.02;;;11.35;;
69841;SDS011;57138;51.326;-0.068;2022-12-11T02:38:30;21.13;;;10.48;;
69841;SDS011;57138;51.326;-0.068;2022-12-11T02:40:59;25.45;;;9.40;;
69841;SDS011;57138;51.326;-0.068;2022-12-11T02:43:26;22.30;;;8.73;;
69841;SDS011;57138;51.326;-0.068;2022-12-11T02:45:56;26.98;;;9.57;;
69841;SDS011;57138;51.326;-0.068;2022-12-11T02:48:23;28.67;;;9.15;;
69841;SDS011;57138;51.326;-0.068;2022-12-11T02:50:50;25.10;;;10.10;;
69841;SDS011;57138;51.326;-0.068;2022-12-11T02:53:21;33.17;;;12.23;;
69841;SDS011;57138;51.326;-0.068;2022-12-11T02:55:51;25.15;;;10.80;;
69841;SDS011;57138;51.326;-0.068;2022-12-11T02:58:25;31.85;;;9.95;;
69841;SDS011;57138;51.326;-0.068;2022-12-11T03:00:55;27.85;;;10.60;;
69841;SDS011;57138;51.326;-0.068;2022-12-11T03:03:20;28.08;;;11.60;;
69841;SDS011;57138;51.326;-0.068;2022-12-11T03:05:46;26.67;;;11.15;;
69841;SDS011;57138;51.326;-0.068;2022-12-11T03:08:12;25.15;;;10.93;;
69841;SDS011;57138;51.326;-0.068;2022-12-11T03:10:41;33.45;;;12.10;;
69841;SDS011;57138;51.326;-0.068;2022-12-11T03:13:06;31.17;;;12.23;;
69841;SDS011;57138;51.326;-0.068;2022-12-11T03:15:33;30.27;;;10.82;;
69841;SDS011;57138;51.326;-0.068;2022-12-11T03:18:37;28.20;;;10.95;;
69841;SDS011;57138;51.326;-0.068;2022-12-11T03:21:09;28.10;;;11.05;;
69841;SDS011;57138;51.326;-0.068;2022-12-11T03:26:10;25.60;;;10.60;;
69841;SDS011;57138;51.326;-0.068;2022-12-11T03:28:41;26.98;;;10.00;;
69841;SDS011;57138;51.326;-0.068;2022-12-11T03:31:24;24.17;;;9.07;;
69841;SDS011;57138;51.326;-0.068;2022-12-11T03:33:56;30.35;;;11.25;;
69841;SDS011;57138;51.326;-0.068;2022-12-11T03:36:30;24.95;;;9.95;;
69841;SDS011;57138;51.326;-0.068;2022-12-11T03:39:07;29.40;;;10.10;;
69841;SDS011;57138;51.326;-0.068;2022-12-11T03:44:03;23.58;;;9.13;;
69841;SDS011;57138;51.326;-0.068;2022-12-11T03:46:30;27.45;;;9.25;;
69841;SDS011;57138;51.326;-0.068;2022-12-11T03:49:04;24.45;;;10.75;;
69841;SDS011;57138;51.326;-0.068;2022-12-11T03:51:33;33.58;;;10.25;;
69841;SDS011;57138;51.326;-0.068;2022-12-11T03:54:00;38.00;;;10.63;;
69841;SDS011;57138;51.326;-0.068;2022-12-11T03:56:26;29.33;;;11.25;;
69841;SDS011;57138;51.326;-0.068;2022-12-11T03:58:54;25.17;;;8.88;;
69841;SDS011;57138;51.326;-0.068;2022-12-11T04:01:19;31.00;;;10.35;;
69841;SDS011;57138;51.326;-0.068;2022-12-11T04:03:45;26.88;;;10.45;;
69841;SDS011;57138;51.326;-0.068;2022-12-11T04:06:10;24.40;;;10.45;;
69841;SDS011;57138;51.326;-0.068;2022-12-11T04:08:36;25.38;;;9.98;;
69841;SDS011;57138;51.326;-0.068;2022-12-11T04:11:02;29.05;;;11.68;;
69841;SDS011;57138;51.326;-0.068;2022-12-11T04:13:47;25.90;;;9.50;;
69841;SDS011;57138;51.326;-0.068;2022-12-11T04:16:32;25.65;;;10.32;;
69841;SDS011;57138;51.326;-0.068;2022-12-11T04:18:58;25.63;;;9.43;;
69841;SDS011;57138;51.326;-0.068;2022-12-11T04:21:42;34.85;;;11.20;;
69841;SDS011;57138;51.326;-0.068;2022-12-11T04:24:26;27.05;;;10.35;;
69841;SDS011;57138;51.326;-0.068;2022-12-11T04:26:51;32.22;;;11.65;;
69841;SDS011;57138;51.326;-0.068;2022-12-11T04:29:16;32.80;;;11.32;;
69841;SDS011;57138;51.326;-0.068;2022-12-11T04:31:42;29.13;;;12.20;;
69841;SDS011;57138;51.326;-0.068;2022-12-11T04:34:07;24.88;;;11.23;;
69841;SDS011;57138;51.326;-0.068;2022-12-11T04:36:33;32.33;;;11.43;;
69841;SDS011;57138;51.326;-0.068;2022-12-11T04:38:58;26.80;;;11.15;;
69841;SDS011;57138;51.326;-0.068;2022-12-11T04:41:24;27.77;;;10.45;;
69841;SDS011;57138;51.326;-0.068;2022-12-11T04:43:49;34.80;;;12.60;;
69841;SDS011;57138;51.326;-0.068;2022-12-11T04:46:18;26.98;;;10.48;;
69841;SDS011;57138;51.326;-0.068;2022-12-11T04:48:45;32.97;;;11.82;;
69841;SDS011;57138;51.326;-0.068;2022-12-11T04:51:12;32.58;;;12.25;;
69841;SDS011;57138;51.326;-0.068;2022-12-11T04:53:38;50.67;;;14.07;;
69841;SDS011;57138;51.326;-0.068;2022-12-11T04:56:05;42.88;;;13.45;;
69841;SDS011;57138;51.326;-0.068;2022-12-11T04:58:31;37.60;;;12.25;;
69841;SDS011;57138;51.326;-0.068;2022-12-11T05:00:57;40.38;;;13.52;;
69841;SDS011;57138;51.326;-0.068;2022-12-11T05:03:22;35.55;;;12.65;;
69841;SDS011;57138;51.326;-0.068;2022-12-11T05:05:52;30.85;;;12.10;;
69841;SDS011;57138;51.326;-0.068;2022-12-11T05:08:18;29.40;;;11.98;;
69841;SDS011;57138;51.326;-0.068;2022-12-11T05:10:53;28.98;;;10.80;;
69841;SDS011;57138;51.326;-0.068;2022-12-11T05:13:19;25.67;;;11.27;;
69841;SDS011;57138;51.326;-0.068;2022-12-11T05:15:44;26.38;;;11.13;;
69841;SDS011;57138;51.326;-0.068;2022-12-11T05:18:10;23.38;;;10.40;;
69841;SDS011;57138;51.326;-0.068;2022-12-11T05:20:35;24.30;;;11.15;;
69841;SDS011;57138;51.326;-0.068;2022-12-11T05:23:00;25.05;;;10.05;;
69841;SDS011;57138;51.326;-0.068;2022-12-11T05:25:26;24.10;;;10.40;;
69841;SDS011;57138;51.326;-0.068;2022-12-11T05:27:51;26.80;;;10.93;;
69841;SDS011;57138;51.326;-0.068;2022-12-11T05:30:16;24.90;;;11.07;;
69841;SDS011;57138;51.326;-0.068;2022-12-11T05:32:42;20.27;;;9.60;;
69841;SDS011;57138;51.326;-0.068;2022-12-11T05:35:09;27.52;;;10.35;;
69841;SDS011;57138;51.326;-0.068;2022-12-11T05:37:39;20.17;;;9.60;;
69841;SDS011;57138;51.326;-0.068;2022-12-11T05:40:05;26.48;;;10.50;;
69841;SDS011;57138;51.326;-0.068;2022-12-11T05:42:31;23.67;;;10.27;;
69841;SDS011;57138;51.326;-0.068;2022-12-11T05:44:57;23.33;;;9.93;;
69841;SDS011;57138;51.326;-0.068;2022-12-11T05:47:23;21.13;;;9.50;;
69841;SDS011;57138;51.326;-0.068;2022-12-11T05:49:49;22.25;;;9.20;;
69841;SDS011;57138;51.326;-0.068;2022-12-11T05:52:15;256.92;;;71.43;;
69841;SDS011;57138;51.326;-0.068;2022-12-11T05:54:41;803.42;;;215.20;;
69841;SDS011;57138;51.326;-0.068;2022-12-11T05:57:06;812.63;;;237.55;;
69841;SDS011;57138;51.326;-0.068;2022-12-11T05:59:32;615.33;;;185.07;;
69841;SDS011;57138;51.326;-0.068;2022-12-11T06:01:57;242.52;;;64.50;;
69841;SDS011;57138;51.326;-0.068;2022-12-11T06:04:22;139.60;;;39.78;;
69841;SDS011;57138;51.326;-0.068;2022-12-11T06:06:48;107.13;;;29.42;;
69841;SDS011;57138;51.326;-0.068;2022-12-11T06:09:14;207.45;;;56.58;;
69841;SDS011;57138;51.326;-0.068;2022-12-11T06:11:40;224.93;;;75.20;;
69841;SDS011;57138;51.326;-0.068;2022-12-11T06:14:06;111.97;;;38.22;;
69841;SDS011;57138;51.326;-0.068;2022-12-11T06:16:33;75.57;;;22.58;;
69841;SDS011;57138;51.326;-0.068;2022-12-11T06:18:58;31.83;;;12.68;;
69841;SDS011;57138;51.326;-0.068;2022-12-11T06:21:25;23.42;;;9.63;;
69841;SDS011;57138;51.326;-0.068;2022-12-11T06:23:53;23.83;;;10.30;;
69841;SDS011;57138;51.326;-0.068;2022-12-11T06:26:20;31.13;;;11.07;;
69841;SDS011;57138;51.326;-0.068;2022-12-11T06:28:46;23.70;;;9.77;;
69841;SDS011;57138;51.326;-0.068;2022-12-11T06:31:12;22.02;;;8.85;;
69841;SDS011;57138;51.326;-0.068;2022-12-11T06:33:38;22.50;;;7.38;;
69841;SDS011;57138;51.326;-0.068;2022-12-11T06:36:05;22.20;;;8.50;;
69841;SDS011;57138;51.326;-0.068;2022-12-11T06:38:32;20.75;;;8.18;;
69841;SDS011;57138;51.326;-0.068;2022-12-11T06:40:58;30.85;;;12.40;;
69841;SDS011;57138;51.326;-0.068;2022-12-11T06:43:24;36.97;;;12.48;;
69841;SDS011;57138;51.326;-0.068;2022-12-11T06:45:50;28.83;;;11.10;;
69841;SDS011;57138;51.326;-0.068;2022-12-11T06:48:16;28.65;;;11.05;;
69841;SDS011;57138;51.326;-0.068;2022-12-11T06:50:42;26.33;;;9.30;;
69841;SDS011;57138;51.326;-0.068;2022-12-11T06:53:08;19.70;;;8.95;;
69841;SDS011;57138;51.326;-0.068;2022-12-11T06:55:36;14.10;;;6.32;;
69841;SDS011;57138;51.326;-0.068;2022-12-11T06:58:02;18.95;;;6.45;;
69841;SDS011;57138;51.326;-0.068;2022-12-11T07:00:28;16.73;;;6.40;;
69841;SDS011;57138;51.326;-0.068;2022-12-11T07:02:54;13.73;;;5.60;;
69841;SDS011;57138;51.326;-0.068;2022-12-11T07:05:19;16.77;;;5.90;;
69841;SDS011;57138;51.326;-0.068;2022-12-11T07:07:45;19.67;;;6.22;;
69841;SDS011;57138;51.326;-0.068;2022-12-11T07:10:11;12.48;;;5.55;;
69841;SDS011;57138;51.326;-0.068;2022-12-11T07:12:36;12.40;;;5.00;;
69841;SDS011;57138;51.326;-0.068;2022-12-11T07:15:02;13.13;;;4.68;;
69841;SDS011;57138;51.326;-0.068;2022-12-11T07:17:30;19.33;;;6.78;;
69841;SDS011;57138;51.326;-0.068;2022-12-11T07:19:56;11.93;;;4.97;;
69841;SDS011;57138;51.326;-0.068;2022-12-11T07:22:21;12.82;;;5.10;;
69841;SDS011;57138;51.326;-0.068;2022-12-11T07:24:47;16.60;;;6.20;;
69841;SDS011;57138;51.326;-0.068;2022-12-11T07:27:12;16.50;;;5.20;;
69841;SDS011;57138;51.326;-0.068;2022-12-11T07:29:37;11.18;;;5.25;;
69841;SDS011;57138;51.326;-0.068;2022-12-11T07:32:03;11.52;;;4.53;;
69841;SDS011;57138;51.326;-0.068;2022-12-11T07:34:28;17.90;;;7.60;;
69841;SDS011;57138;51.326;-0.068;2022-12-11T07:36:54;32.85;;;9.10;;
69841;SDS011;57138;51.326;-0.068;2022-12-11T07:39:19;19.45;;;6.80;;
69841;SDS011;57138;51.326;-0.068;2022-12-11T07:41:44;21.08;;;6.55;;
69841;SDS011;57138;51.326;-0.068;2022-12-11T07:44:11;13.30;;;5.15;;
69841;SDS011;57138;51.326;-0.068;2022-12-11T07:46:37;16.85;;;5.30;;
69841;SDS011;57138;51.326;-0.068;2022-12-11T07:49:03;15.52;;;5.30;;
69841;SDS011;57138;51.326;-0.068;2022-12-11T07:51:30;20.85;;;7.20;;
69841;SDS011;57138;51.326;-0.068;2022-12-11T07:54:20;120.22;;;41.25;;
69841;SDS011;57138;51.326;-0.068;2022-12-11T07:56:45;541.35;;;188.05;;
69841;SDS011;57138;51.326;-0.068;2022-12-11T07:59:11;394.30;;;125.72;;
69841;SDS011;57138;51.326;-0.068;2022-12-11T08:01:38;367.30;;;115.32;;
69841;SDS011;57138;51.326;-0.068;2022-12-11T08:04:05;181.43;;;60.17;;
69841;SDS011;57138;51.326;-0.068;2022-12-11T08:06:33;328.90;;;101.43;;
69841;SDS011;57138;51.326;-0.068;2022-12-11T08:09:00;159.30;;;49.30;;
69841;SDS011;57138;51.326;-0.068;2022-12-11T08:11:27;102.93;;;35.35;;
69841;SDS011;57138;51.326;-0.068;2022-12-11T08:13:53;57.95;;;21.45;;
69841;SDS011;57138;51.326;-0.068;2022-12-11T08:16:19;41.60;;;15.93;;
69841;SDS011;57138;51.326;-0.068;2022-12-11T08:18:45;50.35;;;16.10;;
69841;SDS011;57138;51.326;-0.068;2022-12-11T08:21:15;41.90;;;13.85;;
69841;SDS011;57138;51.326;-0.068;2022-12-11T08:23:43;49.67;;;17.30;;
69841;SDS011;57138;51.326;-0.068;2022-12-11T08:26:20;24.67;;;8.52;;
69841;SDS011;57138;51.326;-0.068;2022-12-11T08:28:47;28.52;;;9.60;;
69841;SDS011;57138;51.326;-0.068;2022-12-11T08:31:15;25.60;;;9.77;;
69841;SDS011;57138;51.326;-0.068;2022-12-11T08:33:41;32.28;;;12.20;;
69841;SDS011;57138;51.326;-0.068;2022-12-11T08:36:08;50.55;;;17.25;;
69841;SDS011;57138;51.326;-0.068;2022-12-11T08:38:35;40.03;;;16.88;;
69841;SDS011;57138;51.326;-0.068;2022-12-11T08:41:10;55.72;;;19.85;;
69841;SDS011;57138;51.326;-0.068;2022-12-11T08:43:41;43.47;;;16.60;;
69841;SDS011;57138;51.326;-0.068;2022-12-11T08:46:07;79.88;;;26.15;;
69841;SDS011;57138;51.326;-0.068;2022-12-11T08:48:33;19.80;;;6.72;;
69841;SDS011;57138;51.326;-0.068;2022-12-11T08:51:00;13.27;;;6.05;;
69841;SDS011;57138;51.326;-0.068;2022-12-11T08:53:30;16.20;;;6.28;;
69841;SDS011;57138;51.326;-0.068;2022-12-11T08:56:03;16.77;;;6.80;;
69841;SDS011;57138;51.326;-0.068;2022-12-11T08:58:30;22.75;;;8.25;;
69841;SDS011;57138;51.326;-0.068;2022-12-11T09:00:55;15.50;;;6.45;;
69841;SDS011;57138;51.326;-0.068;2022-12-11T09:03:21;17.95;;;6.85;;
69841;SDS011;57138;51.326;-0.068;2022-12-11T09:05:46;13.02;;;6.47;;
69841;SDS011;57138;51.326;-0.068;2022-12-11T09:08:11;14.85;;;6.68;;
69841;SDS011;57138;51.326;-0.068;2022-12-11T09:10:37;13.82;;;5.32;;
69841;SDS011;57138;51.326;-0.068;2022-12-11T09:13:02;10.90;;;4.32;;
69841;SDS011;57138;51.326;-0.068;2022-12-11T09:15:28;10.27;;;3.85;;
69841;SDS011;57138;51.326;-0.068;2022-12-11T09:17:54;9.85;;;3.60;;
69841;SDS011;57138;51.326;-0.068;2022-12-11T09:20:19;9.73;;;2.85;;
69841;SDS011;57138;51.326;-0.068;2022-12-11T09:22:44;7.97;;;2.75;;
69841;SDS011;57138;51.326;-0.068;2022-12-11T09:25:10;12.02;;;4.50;;
69841;SDS011;57138;51.326;-0.068;2022-12-11T09:27:35;8.02;;;2.63;;
69841;SDS011;57138;51.326;-0.068;2022-12-11T09:30:01;6.97;;;2.78;;
69841;SDS011;57138;51.326;-0.068;2022-12-11T09:32:26;18.80;;;4.50;;
69841;SDS011;57138;51.326;-0.068;2022-12-11T09:34:52;12.45;;;4.60;;
69841;SDS011;57138;51.326;-0.068;2022-12-11T09:37:17;19.90;;;5.60;;
69841;SDS011;57138;51.326;-0.068;2022-12-11T09:39:42;30.02;;;12.05;;
69841;SDS011;57138;51.326;-0.068;2022-12-11T09:44:55;29.83;;;11.65;;
69841;SDS011;57138;51.326;-0.068;2022-12-11T09:47:39;48.83;;;13.30;;
69841;SDS011;57138;51.326;-0.068;2022-12-11T09:56:21;22.33;;;11.50;;
69841;SDS011;57138;51.326;-0.068;2022-12-11T10:03:59;35.72;;;14.40;;
69841;SDS011;57138;51.326;-0.068;2022-12-11T10:06:40;35.45;;;13.63;;
69841;SDS011;57138;51.326;-0.068;2022-12-11T10:09:15;26.75;;;11.18;;
69841;SDS011;57138;51.326;-0.068;2022-12-11T10:12:00;19.77;;;8.23;;
69841;SDS011;57138;51.326;-0.068;2022-12-11T10:14:40;19.88;;;7.95;;
69841;SDS011;57138;51.326;-0.068;2022-12-11T10:22:49;25.50;;;9.70;;
69841;SDS011;57138;51.326;-0.068;2022-12-11T10:25:24;27.80;;;8.63;;
69841;SDS011;57138;51.326;-0.068;2022-12-11T10:27:54;24.45;;;9.50;;
69841;SDS011;57138;51.326;-0.068;2022-12-11T10:30:38;24.92;;;11.10;;
69841;SDS011;57138;51.326;-0.068;2022-12-11T10:35:38;29.00;;;11.18;;
69841;SDS011;57138;51.326;-0.068;2022-12-11T10:40:41;30.83;;;11.23;;
69841;SDS011;57138;51.326;-0.068;2022-12-11T10:43:10;24.08;;;10.68;;
69841;SDS011;57138;51.326;-0.068;2022-12-11T10:45:36;31.73;;;11.85;;
69841;SDS011;57138;51.326;-0.068;2022-12-11T10:48:06;29.48;;;12.65;;
69841;SDS011;57138;51.326;-0.068;2022-12-11T10:50:35;23.30;;;11.02;;
69841;SDS011;57138;51.326;-0.068;2022-12-11T10:53:02;32.65;;;11.35;;
69841;SDS011;57138;51.326;-0.068;2022-12-11T10:55:29;26.98;;;11.35;;
69841;SDS011;57138;51.326;-0.068;2022-12-11T10:58:04;26.65;;;11.35;;
69841;SDS011;57138;51.326;-0.068;2022-12-11T11:02:57;32.65;;;12.32;;
69841;SDS011;57138;51.326;-0.068;2022-12-11T11:11:01;30.70;;;12.63;;
69841;SDS011;57138;51.326;-0.068;2022-12-11T11:13:28;47.13;;;13.80;;
69841;SDS011;57138;51.326;-0.068;2022-12-11T11:16:05;33.38;;;13.98;;
69841;SDS011;57138;51.326;-0.068;2022-12-11T11:18:35;63.42;;;22.63;;
69841;SDS011;57138;51.326;-0.068;2022-12-11T11:21:04;62.67;;;23.42;;
69841;SDS011;57138;51.326;-0.068;2022-12-11T11:23:30;49.60;;;19.48;;
69841;SDS011;57138;51.326;-0.068;2022-12-11T11:25:57;35.35;;;13.18;;
69841;SDS011;57138;51.326;-0.068;2022-12-11T11:28:26;41.00;;;13.07;;
69841;SDS011;57138;51.326;-0.068;2022-12-11T11:31:05;38.55;;;11.98;;
69841;SDS011;57138;51.326;-0.068;2022-12-11T11:33:44;35.22;;;13.25;;
69841;SDS011;57138;51.326;-0.068;2022-12-11T11:36:22;35.08;;;14.02;;
69841;SDS011;57138;51.326;-0.068;2022-12-11T11:39:15;38.47;;;14.23;;
69841;SDS011;57138;51.326;-0.068;2022-12-11T11:41:59;36.35;;;15.07;;
69841;SDS011;57138;51.326;-0.068;2022-12-11T11:44:32;43.63;;;15.48;;
69841;SDS011;57138;51.326;-0.068;2022-12-11T11:47:20;41.20;;;16.60;;
69841;SDS011;57138;51.326;-0.068;2022-12-11T11:52:29;42.22;;;17.90;;
69841;SDS011;57138;51.326;-0.068;2022-12-11T11:58:17;45.65;;;16.70;;
69841;SDS011;57138;51.326;-0.068;2022-12-11T12:00:49;48.75;;;19.23;;
69841;SDS011;57138;51.326;-0.068;2022-12-11T12:03:18;46.35;;;17.95;;
69841;SDS011;57138;51.326;-0.068;2022-12-11T12:15:56;46.00;;;18.30;;
69841;SDS011;57138;51.326;-0.068;2022-12-11T12:21:39;51.97;;;17.77;;
69841;SDS011;57138;51.326;-0.068;2022-12-11T12:27:01;51.20;;;19.00;;
69841;SDS011;57138;51.326;-0.068;2022-12-11T12:32:22;54.70;;;20.20;;
69841;SDS011;57138;51.326;-0.068;2022-12-11T12:38:01;47.97;;;18.58;;
69841;SDS011;57138;51.326;-0.068;2022-12-11T12:48:46;49.60;;;18.73;;
69841;SDS011;57138;51.326;-0.068;2022-12-11T12:51:27;52.42;;;17.98;;
69841;SDS011;57138;51.326;-0.068;2022-12-11T12:53:57;59.17;;;19.77;;
69841;SDS011;57138;51.326;-0.068;2022-12-11T12:56:29;55.85;;;20.52;;
69841;SDS011;57138;51.326;-0.068;2022-12-11T12:58:58;63.88;;;21.63;;
69841;SDS011;57138;51.326;-0.068;2022-12-11T13:01:26;51.65;;;18.40;;
69841;SDS011;57138;51.326;-0.068;2022-12-11T13:03:59;61.10;;;19.65;;
69841;SDS011;57138;51.326;-0.068;2022-12-11T13:06:49;54.55;;;20.05;;
69841;SDS011;57138;51.326;-0.068;2022-12-11T13:09:18;53.00;;;20.17;;
69841;SDS011;57138;51.326;-0.068;2022-12-11T13:11:46;60.33;;;20.50;;
69841;SDS011;57138;51.326;-0.068;2022-12-11T13:16:46;60.88;;;22.88;;
69841;SDS011;57138;51.326;-0.068;2022-12-11T13:27:37;52.53;;;19.55;;
69841;SDS011;57138;51.326;-0.068;2022-12-11T13:32:48;63.35;;;20.27;;
69841;SDS011;57138;51.326;-0.068;2022-12-11T13:35:26;62.30;;;20.95;;
69841;SDS011;57138;51.326;-0.068;2022-12-11T13:37:55;53.38;;;20.20;;
69841;SDS011;57138;51.326;-0.068;2022-12-11T13:40:39;62.45;;;19.38;;
69841;SDS011;57138;51.326;-0.068;2022-12-11T13:43:08;59.63;;;21.13;;
69841;SDS011;57138;51.326;-0.068;2022-12-11T13:50:51;64.18;;;20.52;;
69841;SDS011;57138;51.326;-0.068;2022-12-11T13:53:20;88.28;;;23.38;;
69841;SDS011;57138;51.326;-0.068;2022-12-11T13:56:14;76.78;;;21.85;;
69841;SDS011;57138;51.326;-0.068;2022-12-11T13:58:54;100.95;;;25.13;;
69841;SDS011;57138;51.326;-0.068;2022-12-11T14:01:21;107.53;;;27.00;;
69841;SDS011;57138;51.326;-0.068;2022-12-11T14:03:56;125.25;;;31.80;;
69841;SDS011;57138;51.326;-0.068;2022-12-11T14:06:38;152.93;;;33.03;;
69841;SDS011;57138;51.326;-0.068;2022-12-11T14:09:03;134.40;;;32.60;;
69841;SDS011;57138;51.326;-0.068;2022-12-11T14:11:35;150.35;;;32.88;;
69841;SDS011;57138;51.326;-0.068;2022-12-11T14:14:06;173.77;;;33.90;;
69841;SDS011;57138;51.326;-0.068;2022-12-11T14:16:40;169.17;;;38.17;;
69841;SDS011;57138;51.326;-0.068;2022-12-11T14:19:06;223.13;;;38.15;;
69841;SDS011;57138;51.326;-0.068;2022-12-11T14:21:34;152.88;;;37.83;;
69841;SDS011;57138;51.326;-0.068;2022-12-11T14:24:01;160.73;;;39.05;;
69841;SDS011;57138;51.326;-0.068;2022-12-11T14:26:29;152.18;;;37.75;;
69841;SDS011;57138;51.326;-0.068;2022-12-11T14:28:57;150.95;;;37.85;;
69841;SDS011;57138;51.326;-0.068;2022-12-11T14:31:27;181.75;;;40.75;;
69841;SDS011;57138;51.326;-0.068;2022-12-11T14:33:55;177.60;;;40.28;;
69841;SDS011;57138;51.326;-0.068;2022-12-11T14:36:25;172.77;;;42.60;;
69841;SDS011;57138;51.326;-0.068;2022-12-11T14:38:54;161.27;;;41.40;;
69841;SDS011;57138;51.326;-0.068;2022-12-11T14:41:37;140.60;;;42.33;;
69841;SDS011;57138;51.326;-0.068;2022-12-11T14:44:10;159.15;;;44.45;;
69841;SDS011;57138;51.326;-0.068;2022-12-11T14:46:44;164.30;;;42.08;;
69841;SDS011;57138;51.326;-0.068;2022-12-11T14:49:25;175.77;;;44.78;;
69841;SDS011;57138;51.326;-0.068;2022-12-11T14:51:59;175.73;;;46.28;;
69841;SDS011;57138;51.326;-0.068;2022-12-11T14:54:30;207.68;;;53.58;;
69841;SDS011;57138;51.326;-0.068;2022-12-11T14:57:02;194.57;;;54.45;;
69841;SDS011;57138;51.326;-0.068;2022-12-11T14:59:30;230.82;;;61.53;;
69841;SDS011;57138;51.326;-0.068;2022-12-11T15:05:46;213.63;;;53.80;;
69841;SDS011;57138;51.326;-0.068;2022-12-11T15:07:54;203.20;;;57.67;;
69841;SDS011;57138;51.326;-0.068;2022-12-11T15:13:38;184.63;;;52.55;;
69841;SDS011;57138;51.326;-0.068;2022-12-11T15:16:17;204.65;;;55.05;;
69841;SDS011;57138;51.326;-0.068;2022-12-11T15:18:46;175.63;;;50.05;;
69841;SDS011;57138;51.326;-0.068;2022-12-11T15:21:15;169.25;;;49.53;;
69841;SDS011;57138;51.326;-0.068;2022-12-11T15:26:16;166.93;;;43.72;;
69841;SDS011;57138;51.326;-0.068;2022-12-11T15:28:42;145.25;;;43.05;;
69841;SDS011;57138;51.326;-0.068;2022-12-11T15:33:53;119.72;;;32.58;;
69841;SDS011;57138;51.326;-0.068;2022-12-11T15:36:23;123.28;;;35.10;;
69841;SDS011;57138;51.326;-0.068;2022-12-11T15:38:57;122.35;;;30.50;;
69841;SDS011;57138;51.326;-0.068;2022-12-11T15:41:23;114.40;;;31.42;;
69841;SDS011;57138;51.326;-0.068;2022-12-11T15:43:49;122.68;;;31.98;;
69841;SDS011;57138;51.326;-0.068;2022-12-11T15:46:17;125.57;;;30.02;;
69841;SDS011;57138;51.326;-0.068;2022-12-11T15:48:43;124.10;;;29.17;;
69841;SDS011;57138;51.326;-0.068;2022-12-11T15:51:09;139.63;;;28.60;;
69841;SDS011;57138;51.326;-0.068;2022-12-11T15:53:35;145.40;;;28.23;;
69841;SDS011;57138;51.326;-0.068;2022-12-11T15:56:00;132.68;;;27.42;;
69841;SDS011;57138;51.326;-0.068;2022-12-11T15:58:26;135.43;;;26.65;;
69841;SDS011;57138;51.326;-0.068;2022-12-11T16:00:53;149.90;;;28.25;;
69841;SDS011;57138;51.326;-0.068;2022-12-11T16:03:21;120.72;;;24.42;;
69841;SDS011;57138;51.326;-0.068;2022-12-11T16:05:48;97.47;;;22.17;;
69841;SDS011;57138;51.326;-0.068;2022-12-11T16:08:16;127.47;;;25.15;;
69841;SDS011;57138;51.326;-0.068;2022-12-11T16:10:44;132.50;;;27.15;;
69841;SDS011;57138;51.326;-0.068;2022-12-11T16:13:10;125.75;;;25.27;;
69841;SDS011;57138;51.326;-0.068;2022-12-11T16:15:37;106.75;;;21.08;;